Time;durP1;ratioP1;P1;durP2;ratioP2;P2;SDS_P1;SDS_P2;PMS_P1;PMS_P2;Temp;Humidity;BMP_temperature;BMP_pressure;BME280_temperature;BME280_humidity;BME280_pressure;Samples;Min_cycle;Max_cycle;Signal;HPM_P1;HPM_P2
2023/08/29 00:02:04;;;;;;;1.13;1.10;;;;;;;25.43;68.27;96585.53;5008110;28;20328;-25
2023/08/29 00:04:30;;;;;;;1.30;1.20;;;;;;;25.43;67.94;96593.25;5008930;28;20657;-26
2023/08/29 00:06:57;;;;;;;1.00;1.00;;;;;;;25.43;68.00;96579.56;5005822;28;20222;-26
2023/08/29 00:09:23;;;;;;;0.90;0.90;;;;;;;25.42;68.00;96588.97;5010272;28;20642;-26
2023/08/29 00:11:50;;;;;;;0.83;0.83;;;;;;;25.43;68.19;96595.84;5008121;28;20241;-26
2023/08/29 00:14:16;;;;;;;1.13;1.10;;;;;;;24.76;68.08;96494.69;5002204;28;20218;-26
2023/08/29 00:16:43;;;;;;;0.90;0.90;;;;;;;25.43;68.04;96615.56;5002843;28;20230;-26
2023/08/29 00:19:09;;;;;;;1.10;1.10;;;;;;;25.43;68.16;96610.44;5010922;28;20198;-26
2023/08/29 00:21:37;;;;;;;1.00;1.00;;;;;;;25.43;68.16;96605.28;5012436;28;20198;-26
2023/08/29 00:24:03;;;;;;;1.20;1.20;;;;;;;25.42;67.93;96601.84;5007628;28;20618;-26
2023/08/29 00:26:30;;;;;;;0.90;0.90;;;;;;;25.42;68.02;96601.84;5005554;28;20210;-26
2023/08/29 00:28:56;;;;;;;0.90;0.90;;;;;;;25.43;67.99;96603.53;5014484;28;20210;-26
2023/08/29 00:31:23;;;;;;;0.90;0.90;;;;;;;25.44;68.34;96588.97;5006242;28;20723;-26
2023/08/29 00:33:50;;;;;;;1.00;1.00;;;;;;;25.42;68.21;96586.41;5006405;28;20722;-26
2023/08/29 00:36:16;;;;;;;1.00;1.00;;;;;;;25.42;68.15;96586.41;5014428;28;20699;-26
2023/08/29 00:38:43;;;;;;;0.80;0.80;;;;;;;25.44;68.27;96586.41;5013183;28;20229;-26
2023/08/29 00:41:10;;;;;;;0.90;0.90;;;;;;;25.43;68.07;96590.69;5014468;28;20209;-26
2023/08/29 00:43:37;;;;;;;0.90;0.90;;;;;;;25.42;67.84;96586.41;5009425;28;20241;-26
2023/08/29 00:46:04;;;;;;;1.00;1.00;;;;;;;25.43;67.87;96585.53;5004876;28;20234;-26
2023/08/29 00:48:31;;;;;;;0.90;0.90;;;;;;;25.43;68.10;96580.41;5014867;28;20233;-26
2023/08/29 00:50:57;;;;;;;1.10;1.00;;;;;;;25.42;68.31;96570.97;5011709;28;20645;-26
2023/08/29 00:53:25;;;;;;;1.00;1.00;;;;;;;25.31;67.97;96551.25;5009858;28;20607;-26
2023/08/29 00:55:51;;;;;;;0.90;0.90;;;;;;;25.42;68.00;96557.25;5006531;28;20198;-26
2023/08/29 00:58:18;;;;;;;0.90;0.90;;;;;;;25.42;68.18;96563.25;5007550;28;20214;-26
2023/08/29 01:00:45;;;;;;;0.97;0.97;;;;;;;25.42;68.00;96557.25;5007166;28;20211;-26
2023/08/29 01:03:12;;;;;;;1.00;1.00;;;;;;;25.42;68.11;96564.97;5004389;28;20281;-26
2023/08/29 01:05:38;;;;;;;1.20;1.10;;;;;;;25.41;68.37;96553.84;5009475;28;20213;-25
2023/08/29 01:08:05;;;;;;;1.00;1.00;;;;;;;25.41;68.29;96553.84;5009285;28;20218;-27
2023/08/29 01:10:51;;;;;;;0.90;0.90;;;;;;;25.41;68.35;96565.84;4994858;28;20253;-25
2023/08/29 01:13:22;;;;;;;0.90;0.90;;;;;;;25.42;68.24;96576.13;5009628;28;20222;-26
2023/08/29 01:15:49;;;;;;;1.00;1.00;;;;;;;25.42;67.95;96575.25;4992480;28;20302;-26
2023/08/29 01:18:17;;;;;;;0.97;0.97;;;;;;;25.42;67.85;96576.13;5012771;28;20218;-26
2023/08/29 01:20:44;;;;;;;0.90;0.90;;;;;;;25.42;68.10;96567.53;5010174;28;20673;-26
2023/08/29 01:23:21;;;;;;;0.90;0.90;;;;;;;25.43;68.21;96577.00;4992199;28;20277;-26
2023/08/29 01:26:07;;;;;;;1.20;1.10;;;;;;;25.43;67.97;96561.56;5003953;28;20241;-26
2023/08/29 01:28:36;;;;;;;0.90;0.90;;;;;;;25.43;67.86;96554.66;5004134;28;20233;-26
2023/08/29 01:31:03;;;;;;;0.93;0.93;;;;;;;25.42;68.19;96555.53;5004050;28;20711;-26
2023/08/29 01:33:30;;;;;;;1.20;1.10;;;;;;;25.43;68.04;96541.81;5006126;28;20218;-25
2023/08/29 01:35:57;;;;;;;1.00;1.00;;;;;;;25.40;68.30;96538.41;5003459;28;20230;-26
2023/08/29 01:38:23;;;;;;;0.90;0.90;;;;;;;25.43;68.00;96546.13;5012277;28;20226;-25
2023/08/29 01:40:50;;;;;;;0.90;0.90;;;;;;;25.38;68.11;96528.13;4998554;28;20557;-26
2023/08/29 01:43:16;;;;;;;0.93;0.93;;;;;;;25.43;68.17;96543.53;5013150;28;20285;-25
2023/08/29 01:45:43;;;;;;;0.83;0.83;;;;;;;25.43;67.83;96541.81;5010144;28;20206;-26
2023/08/29 01:48:10;;;;;;;1.00;1.00;;;;;;;25.43;67.99;96548.69;5011878;28;20241;-26
2023/08/29 01:50:37;;;;;;;1.10;1.10;;;;;;;25.42;68.18;96544.38;5011219;28;20202;-26
2023/08/29 01:53:04;;;;;;;0.90;0.90;;;;;;;25.32;68.03;96529.81;5002047;28;20227;-26
2023/08/29 01:55:30;;;;;;;0.90;0.90;;;;;;;25.42;67.87;96546.97;5011950;28;20727;-26
2023/08/29 01:57:57;;;;;;;0.80;0.80;;;;;;;25.42;68.09;96545.25;5008359;28;20667;-26
2023/08/29 02:00:23;;;;;;;0.90;0.90;;;;;;;25.42;68.05;96547.81;5005246;28;20203;-26
2023/08/29 02:02:50;;;;;;;1.10;1.00;;;;;;;25.42;67.95;96547.81;5012101;28;20220;-26
2023/08/29 02:05:17;;;;;;;0.83;0.83;;;;;;;25.42;67.99;96552.09;5010352;28;20288;-25
2023/08/29 02:07:43;;;;;;;0.90;0.90;;;;;;;25.35;68.35;96542.69;5013263;28;20313;-26
2023/08/29 02:10:10;;;;;;;0.90;0.90;;;;;;;25.42;68.20;96559.81;5010181;28;20202;-26
2023/08/29 02:12:37;;;;;;;1.20;1.10;;;;;;;25.43;68.01;96562.38;5006304;28;20194;-26
2023/08/29 02:15:05;;;;;;;1.03;1.00;;;;;;;25.43;68.16;96561.56;5004524;28;20206;-26
2023/08/29 02:17:32;;;;;;;0.90;0.90;;;;;;;25.43;68.19;96561.56;5011261;28;20226;-26
2023/08/29 02:19:59;;;;;;;1.17;1.10;;;;;;;25.42;68.42;96557.25;5005332;28;20205;-26
2023/08/29 02:22:26;;;;;;;0.90;0.90;;;;;;;25.42;68.08;96560.69;5010486;28;20252;-26
2023/08/29 02:24:52;;;;;;;0.90;0.90;;;;;;;25.42;68.35;96567.53;5011365;28;20197;-28
2023/08/29 02:27:19;;;;;;;1.00;1.00;;;;;;;25.42;68.34;96570.97;5012051;28;20240;-26
2023/08/29 02:29:46;;;;;;;0.90;0.90;;;;;;;25.42;68.24;96570.97;5011941;28;20206;-26
2023/08/29 02:32:12;;;;;;;1.00;1.00;;;;;;;25.42;68.44;96564.97;5007030;28;20286;-26
2023/08/29 02:34:39;;;;;;;1.10;1.10;;;;;;;25.41;67.79;96561.56;5006790;28;20228;-26
2023/08/29 02:37:05;;;;;;;1.00;1.00;;;;;;;25.42;68.03;96570.97;5007836;28;20255;-26
2023/08/29 02:39:32;;;;;;;0.83;0.83;;;;;;;25.42;68.27;96565.84;5004944;28;20673;-27
2023/08/29 02:41:59;;;;;;;0.90;0.90;;;;;;;25.42;68.18;96563.25;5007626;28;20564;-26
2023/08/29 02:44:26;;;;;;;1.00;1.00;;;;;;;25.44;68.17;96573.53;5006728;28;20198;-26
2023/08/29 02:46:53;;;;;;;0.83;0.83;;;;;;;25.43;68.24;96564.13;5011207;28;20218;-26
2023/08/29 02:49:20;;;;;;;0.90;0.90;;;;;;;25.42;68.10;96567.53;5012239;28;20202;-29
2023/08/29 02:51:46;;;;;;;0.90;0.90;;;;;;;25.43;67.89;96566.69;5011226;28;20256;-26
2023/08/29 02:54:13;;;;;;;1.10;1.10;;;;;;;25.42;67.97;96567.53;5006874;28;20623;-26
2023/08/29 02:56:39;;;;;;;0.90;0.90;;;;;;;25.43;67.93;96569.28;5007279;28;20240;-25
2023/08/29 02:59:06;;;;;;;0.97;0.97;;;;;;;25.43;67.94;96556.41;5011620;28;20618;-26
2023/08/29 03:01:33;;;;;;;0.90;0.90;;;;;;;25.42;68.10;96558.13;5007851;28;20199;-26
2023/08/29 03:03:59;;;;;;;1.10;1.10;;;;;;;25.40;68.40;96553.84;5002380;28;20615;-26
2023/08/29 03:06:26;;;;;;;0.93;0.93;;;;;;;25.42;68.01;96552.09;4998862;28;20588;-26
2023/08/29 03:08:53;;;;;;;0.87;0.87;;;;;;;25.41;68.14;96550.41;5001552;28;20226;-27
2023/08/29 03:11:19;;;;;;;0.90;0.90;;;;;;;25.41;68.25;96548.69;5011884;28;20234;-26
2023/08/29 03:13:46;;;;;;;0.90;0.90;;;;;;;25.41;68.20;96542.69;5003919;28;20225;-25
2023/08/29 03:16:16;;;;;;;0.80;0.80;;;;;;;25.41;67.95;96545.25;5006101;28;20470;-26
2023/08/29 03:18:45;;;;;;;0.80;0.80;;;;;;;25.40;68.25;96549.53;5010124;28;20226;-25
2023/08/29 03:21:12;;;;;;;1.00;1.00;;;;;;;25.40;68.07;96548.69;5004875;28;20198;-26
2023/08/29 03:23:39;;;;;;;0.90;0.90;;;;;;;25.40;68.00;96548.69;5003528;28;20230;-27
2023/08/29 03:26:06;;;;;;;0.90;0.90;;;;;;;25.40;67.96;96548.69;5000702;28;20269;-26
2023/08/29 03:28:37;;;;;;;0.80;0.80;;;;;;;25.39;68.03;96542.69;5003692;28;20230;-26
2023/08/29 03:31:10;;;;;;;0.90;0.90;;;;;;;25.40;68.13;96538.41;5006054;28;20288;-26
2023/08/29 03:33:38;;;;;;;0.80;0.80;;;;;;;25.40;68.34;96536.66;4999050;28;20891;-26
2023/08/29 03:36:04;;;;;;;0.90;0.90;;;;;;;25.40;68.28;96539.25;5004124;28;20209;-25
2023/08/29 03:38:33;;;;;;;0.93;0.93;;;;;;;25.40;68.17;96534.09;5001997;28;20711;-26
2023/08/29 03:41:00;;;;;;;0.93;0.93;;;;;;;25.40;68.09;96528.13;5003838;28;20649;-26
2023/08/29 03:43:33;;;;;;;0.90;0.90;;;;;;;25.40;68.48;96528.13;5001360;28;20199;-26
2023/08/29 03:46:00;;;;;;;0.80;0.80;;;;;;;25.39;68.23;96522.09;5005449;28;20277;-26
2023/08/29 03:48:26;;;;;;;0.80;0.80;;;;;;;25.40;68.39;96528.13;5008537;28;20241;-26
2023/08/29 03:50:55;;;;;;;0.80;0.80;;;;;;;25.36;68.41;96527.25;5002692;28;20637;-26
2023/08/29 03:53:22;;;;;;;0.93;0.93;;;;;;;25.41;68.42;96537.53;5009827;28;20198;-26
2023/08/29 03:55:48;;;;;;;0.97;0.90;;;;;;;25.40;68.35;96534.09;5010826;28;20202;-26
2023/08/29 03:58:15;;;;;;;2.33;1.07;;;;;;;25.41;68.65;96537.53;5004475;28;20223;-26
2023/08/29 04:00:42;;;;;;;1.20;1.00;;;;;;;25.39;68.97;96536.66;5007746;28;20194;-26
2023/08/29 04:03:09;;;;;;;1.03;1.00;;;;;;;25.39;69.23;96529.81;5015304;28;20253;-28
2023/08/29 04:05:37;;;;;;;2.13;1.10;;;;;;;25.37;69.04;96522.97;5014927;28;20716;-26
2023/08/29 04:08:05;;;;;;;0.80;0.80;;;;;;;25.38;69.29;96529.81;5014526;28;20228;-26
2023/08/29 04:10:37;;;;;;;0.90;0.90;;;;;;;25.36;69.38;96523.81;5012060;28;20198;-26
2023/08/29 04:13:04;;;;;;;1.23;1.13;;;;;;;25.35;69.20;96525.56;5007708;28;20194;-26
2023/08/29 04:15:31;;;;;;;1.00;1.00;;;;;;;25.30;69.52;96519.50;5004138;28;20338;-26
2023/08/29 04:17:57;;;;;;;0.90;0.90;;;;;;;25.34;69.34;96525.56;5004806;28;20642;-29
2023/08/29 04:20:24;;;;;;;1.00;0.97;;;;;;;25.33;69.40;96522.13;5014488;28;20206;-26
2023/08/29 04:22:51;;;;;;;2.00;0.90;;;;;;;25.32;69.47;96519.50;5014248;28;20209;-26
2023/08/29 04:25:18;;;;;;;1.80;1.10;;;;;;;25.32;69.26;96524.66;5015130;28;20198;-29
2023/08/29 04:27:46;;;;;;;1.07;1.00;;;;;;;25.30;69.40;96516.94;5013139;28;20226;-26
2023/08/29 04:30:13;;;;;;;0.90;0.90;;;;;;;25.31;69.58;96521.22;5013454;28;20198;-26
2023/08/29 04:32:39;;;;;;;1.00;1.00;;;;;;;25.30;69.38;96522.09;5009360;28;20620;-26
2023/08/29 04:35:06;;;;;;;1.00;1.00;;;;;;;25.30;69.94;96518.66;5012339;28;20226;-26
2023/08/29 04:37:33;;;;;;;1.10;1.00;;;;;;;25.30;69.51;96521.22;5015169;28;20647;-26
2023/08/29 04:40:00;;;;;;;1.23;1.00;;;;;;;25.28;69.51;96518.66;5014341;28;20198;-27
2023/08/29 04:42:27;;;;;;;1.93;1.10;;;;;;;25.28;69.36;96523.78;5014417;28;20264;-26
2023/08/29 04:44:54;;;;;;;2.33;1.40;;;;;;;25.29;69.36;96522.09;5013962;28;20198;-26
2023/08/29 04:47:20;;;;;;;5.67;1.47;;;;;;;25.29;69.62;96520.38;5006186;28;20232;-34
2023/08/29 04:49:47;;;;;;;2.57;1.30;;;;;;;25.30;69.46;96514.38;5006615;28;20257;-26
2023/08/29 04:52:14;;;;;;;7.97;2.03;;;;;;;25.29;69.69;96517.81;5012955;28;20622;-26
2023/08/29 04:54:41;;;;;;;6.90;1.90;;;;;;;25.29;68.94;96520.38;5013614;28;20717;-26
2023/08/29 04:57:07;;;;;;;5.07;1.93;;;;;;;25.28;67.79;96518.66;5009432;28;20602;-27
2023/08/29 04:59:34;;;;;;;6.57;2.23;;;;;;;25.29;67.43;96517.81;5011697;28;20202;-26
2023/08/29 05:02:00;;;;;;;9.87;2.23;;;;;;;25.29;68.40;96517.81;5007477;28;20194;-26
2023/08/29 05:04:27;;;;;;;7.27;1.87;;;;;;;25.31;68.93;96525.53;5012386;28;20257;-26
2023/08/29 05:06:53;;;;;;;7.27;2.10;;;;;;;25.31;68.08;96522.94;5010275;28;20222;-26
2023/08/29 05:09:20;;;;;;;5.13;2.03;;;;;;;25.29;65.51;96520.38;5013281;28;20198;-26
2023/08/29 05:11:46;;;;;;;3.80;1.73;;;;;;;25.29;64.63;96524.66;5013291;28;20198;-26
2023/08/29 05:14:13;;;;;;;13.20;1.73;;;;;;;25.22;62.94;96502.38;5006911;28;20598;-26
2023/08/29 05:16:40;;;;;;;6.27;1.90;;;;;;;25.26;61.97;96519.53;5005817;28;20608;-26
2023/08/29 05:19:07;;;;;;;5.80;1.83;;;;;;;25.24;61.42;96516.09;5012313;28;20199;-26
2023/08/29 05:21:34;;;;;;;1.93;1.53;;;;;;;25.23;60.08;96511.81;5013331;28;20206;-26
2023/08/29 05:24:01;;;;;;;2.10;1.40;;;;;;;25.23;59.33;96516.94;5013735;28;20720;-26
2023/08/29 05:26:28;;;;;;;2.73;1.67;;;;;;;25.21;59.17;96511.81;5013845;28;20229;-26
2023/08/29 05:28:54;;;;;;;2.50;1.50;;;;;;;25.21;58.63;96518.66;5005939;28;20258;-29
2023/08/29 05:31:21;;;;;;;2.20;1.43;;;;;;;25.21;58.37;96521.22;5011279;28;20203;-26
2023/08/29 05:33:47;;;;;;;1.53;1.43;;;;;;;25.19;58.18;96520.41;5013478;28;20664;-26
2023/08/29 05:36:14;;;;;;;1.50;1.40;;;;;;;25.18;57.99;96522.09;5005309;28;20364;-25
2023/08/29 05:38:40;;;;;;;2.83;1.50;;;;;;;25.16;57.89;96526.38;5014065;28;20250;-30
2023/08/29 05:41:08;;;;;;;2.30;1.50;;;;;;;25.16;57.93;96528.94;5008060;28;20202;-26
2023/08/29 05:43:35;;;;;;;2.00;1.40;;;;;;;25.16;57.44;96533.25;5014302;28;20198;-26
2023/08/29 05:46:02;;;;;;;1.10;1.10;;;;;;;25.16;58.13;96525.53;5006189;28;20202;-26
2023/08/29 05:48:28;;;;;;;2.17;1.50;;;;;;;25.17;59.19;96527.25;5011703;28;20222;-26
2023/08/29 05:50:55;;;;;;;1.43;1.23;;;;;;;25.18;59.49;96537.53;5005941;28;20207;-26
2023/08/29 05:53:21;;;;;;;1.40;1.30;;;;;;;25.19;59.88;96531.50;5009094;28;20202;-26
2023/08/29 05:55:48;;;;;;;1.07;1.07;;;;;;;25.19;60.71;96534.09;5013108;28;20696;-26
2023/08/29 05:58:15;;;;;;;2.17;1.10;;;;;;;25.20;60.60;96535.81;5007827;28;20257;-26
2023/08/29 06:00:42;;;;;;;3.77;1.30;;;;;;;25.22;61.23;96538.38;5013415;28;20225;-25
2023/08/29 06:03:08;;;;;;;2.53;1.57;;;;;;;25.23;61.43;96534.94;5013680;28;20226;-26
2023/08/29 06:05:36;;;;;;;1.37;1.10;;;;;;;25.24;61.68;96539.22;5013795;28;20571;-26
2023/08/29 06:08:03;;;;;;;1.33;1.20;;;;;;;25.26;61.47;96540.09;5011436;28;20700;-26
2023/08/29 06:10:44;;;;;;;1.47;1.20;;;;;;;25.28;61.85;96553.81;5011758;28;20626;-26
2023/08/29 06:13:11;;;;;;;1.50;1.40;;;;;;;25.28;62.33;96546.09;5012922;28;20613;-26
2023/08/29 06:15:38;;;;;;;1.33;1.20;;;;;;;25.29;62.12;96556.38;5013310;28;20229;-26
2023/08/29 06:18:04;;;;;;;1.67;1.30;;;;;;;25.29;62.35;96548.66;5003949;28;20215;-26
2023/08/29 06:20:31;;;;;;;1.23;1.10;;;;;;;25.30;62.54;96555.53;5010120;28;20210;-26
2023/08/29 06:22:58;;;;;;;3.10;1.40;;;;;;;25.31;62.41;96544.38;5011097;28;20399;-26
2023/08/29 06:25:25;;;;;;;1.30;1.20;;;;;;;25.32;62.96;96545.22;5002769;28;20229;-26
2023/08/29 06:27:51;;;;;;;1.33;1.27;;;;;;;25.32;62.65;96547.81;5022747;22;20226;-27
2023/08/29 06:30:18;;;;;;;2.17;1.07;;;;;;;25.34;62.69;96553.84;5012277;28;20202;-27
2023/08/29 06:32:44;;;;;;;1.30;1.20;;;;;;;25.34;63.19;96562.41;5011287;28;20293;-27
2023/08/29 06:35:11;;;;;;;3.60;1.10;;;;;;;25.35;63.18;96563.25;5012583;28;20692;-27
2023/08/29 06:37:38;;;;;;;1.13;1.03;;;;;;;25.34;63.16;96566.72;5012860;28;20218;-28
2023/08/29 06:40:05;;;;;;;1.20;1.10;;;;;;;25.33;63.13;96570.13;4995070;28;20238;-27
2023/08/29 06:42:32;;;;;;;1.47;1.27;;;;;;;25.37;63.44;96580.41;4988849;28;20206;-27
2023/08/29 06:44:59;;;;;;;1.17;1.10;;;;;;;25.36;63.58;96572.69;4992935;28;20572;-27
2023/08/29 06:47:25;;;;;;;1.40;1.30;;;;;;;25.37;63.23;96585.53;4992780;28;20562;-27
2023/08/29 06:49:55;;;;;;;1.20;1.10;;;;;;;25.38;63.20;96584.72;4990960;28;20670;-27
2023/08/29 06:52:22;;;;;;;1.30;1.20;;;;;;;25.38;63.47;96589.84;4988893;28;20288;-27
2023/08/29 06:54:48;;;;;;;1.27;1.20;;;;;;;25.39;63.21;96588.13;4992838;28;20226;-27
2023/08/29 06:57:15;;;;;;;2.20;1.10;;;;;;;25.39;63.15;96595.84;4992204;28;20207;-29
2023/08/29 06:59:41;;;;;;;1.93;1.10;;;;;;;25.39;62.96;96596.69;4987317;28;20218;-27
2023/08/29 07:02:08;;;;;;;6.03;1.20;;;;;;;25.38;62.66;96588.97;4991723;28;20206;-30
2023/08/29 07:04:34;;;;;;;1.20;1.10;;;;;;;25.38;62.63;96591.56;4988629;28;20226;-27
2023/08/29 07:07:02;;;;;;;0.97;0.97;;;;;;;25.38;62.91;96597.56;4988225;28;20226;-29
2023/08/29 07:09:30;;;;;;;1.47;1.37;;;;;;;25.38;63.26;96588.97;4988304;28;20250;-27
2023/08/29 07:11:57;;;;;;;1.20;1.10;;;;;;;25.37;63.39;96593.25;4990071;28;20266;-28
2023/08/29 07:14:23;;;;;;;1.33;1.23;;;;;;;25.37;63.69;96595.84;4990034;28;20302;-31
2023/08/29 07:16:50;;;;;;;3.67;1.07;;;;;;;25.36;63.88;96588.13;4992232;28;20293;-27
2023/08/29 07:19:35;;;;;;;1.43;1.27;;;;;;;25.35;63.96;96592.44;4989030;28;20223;-30
2023/08/29 07:22:02;;;;;;;2.10;1.30;;;;;;;25.38;64.14;96601.84;4991785;28;20210;-30
2023/08/29 07:24:35;;;;;;;1.33;1.10;;;;;;;25.37;64.25;96602.72;4993404;28;20694;-27
2023/08/29 07:27:02;;;;;;;1.07;1.07;;;;;;;25.37;64.41;96608.69;4991902;28;20230;-27
2023/08/29 07:29:28;;;;;;;1.20;1.10;;;;;;;25.37;64.01;96605.28;4983836;28;20261;-27
2023/08/29 07:31:55;;;;;;;3.60;1.30;;;;;;;25.37;64.25;96608.69;4994265;28;20207;-27
2023/08/29 07:34:21;;;;;;;1.23;1.13;;;;;;;25.38;64.11;96609.56;4999436;28;20262;-28
2023/08/29 07:36:48;;;;;;;1.30;1.20;;;;;;;25.39;64.34;96613.84;4992125;28;20226;-27
2023/08/29 07:39:18;;;;;;;1.93;1.30;;;;;;;25.38;64.52;96617.28;4983469;28;20378;-27
2023/08/29 07:41:45;;;;;;;1.30;1.20;;;;;;;25.39;64.50;96618.97;4985110;28;20208;-27
2023/08/29 07:44:12;;;;;;;0.97;0.90;;;;;;;25.40;64.46;96620.72;4989985;28;20202;-31
2023/08/29 07:46:38;;;;;;;3.67;1.20;;;;;;;25.40;64.69;96621.56;4985152;28;20207;-27
2023/08/29 07:49:20;;;;;;;1.00;1.00;;;;;;;25.40;64.65;96620.72;4985293;28;20691;-27
2023/08/29 07:51:50;;;;;;;1.10;1.00;;;;;;;25.41;64.54;96622.41;4981760;28;20208;-27
2023/08/29 07:54:17;;;;;;;1.27;1.17;;;;;;;25.42;64.90;96627.56;4987915;28;20204;-27
2023/08/29 07:56:43;;;;;;;1.20;1.10;;;;;;;25.42;64.84;96645.56;4991239;28;20269;-27
2023/08/29 07:59:10;;;;;;;1.90;1.10;;;;;;;25.43;64.52;96643.88;4987182;28;20313;-27
2023/08/29 08:01:36;;;;;;;1.10;1.00;;;;;;;25.43;64.81;96643.88;4981480;28;20199;-32
2023/08/29 08:04:03;;;;;;;0.90;0.90;;;;;;;25.40;64.72;96634.41;4984034;28;20224;-27
2023/08/29 08:06:30;;;;;;;1.10;1.00;;;;;;;25.43;64.76;96641.28;4989701;28;20208;-27
2023/08/29 08:08:56;;;;;;;1.00;1.00;;;;;;;25.43;65.03;96638.72;4986607;28;20281;-27
2023/08/29 08:11:23;;;;;;;1.00;1.00;;;;;;;25.42;65.02;96627.56;4987740;28;20225;-32
2023/08/29 08:13:49;;;;;;;0.90;0.90;;;;;;;25.43;64.80;96626.69;4986079;28;20207;-27
2023/08/29 08:16:16;;;;;;;1.17;1.07;;;;;;;25.43;65.03;96633.59;4987271;28;20227;-27
2023/08/29 08:18:43;;;;;;;1.10;1.00;;;;;;;25.44;64.63;96643.00;4991160;28;20223;-27
2023/08/29 08:21:09;;;;;;;0.93;0.93;;;;;;;25.43;65.13;96642.13;4984159;28;20213;-27
2023/08/29 08:23:36;;;;;;;1.37;1.27;;;;;;;25.44;64.96;96651.59;4990507;28;20298;-27
2023/08/29 08:26:04;;;;;;;1.20;1.07;;;;;;;25.43;65.05;96647.28;4987621;28;20239;-27
2023/08/29 08:28:30;;;;;;;1.20;1.10;;;;;;;25.44;64.69;96648.16;4995658;28;20721;-27
2023/08/29 08:30:57;;;;;;;1.20;1.10;;;;;;;25.43;64.88;96647.28;4991054;28;20266;-27
2023/08/29 08:33:25;;;;;;;1.30;1.00;;;;;;;25.42;64.77;96649.84;4993750;28;20266;-27
2023/08/29 08:35:52;;;;;;;1.00;1.00;;;;;;;25.42;65.26;96643.00;4986564;28;20229;-29
2023/08/29 08:38:23;;;;;;;0.90;0.90;;;;;;;25.41;65.54;96651.59;4987428;28;21090;-27
2023/08/29 08:40:49;;;;;;;2.77;1.10;;;;;;;25.41;65.74;96649.00;4992521;28;20230;-27
2023/08/29 08:43:16;;;;;;;1.30;1.20;;;;;;;25.41;66.10;96655.88;4989184;28;20211;-28
2023/08/29 08:45:42;;;;;;;1.23;1.13;;;;;;;25.43;66.60;96651.59;4974424;28;20207;-32
2023/08/29 08:48:09;;;;;;;1.00;1.00;;;;;;;25.42;66.13;96655.00;4993630;28;20226;-27
2023/08/29 08:50:36;;;;;;;1.20;1.10;;;;;;;25.43;66.23;96657.56;4967486;28;20692;-27
2023/08/29 08:53:03;;;;;;;1.73;1.30;;;;;;;25.44;66.27;96664.44;4977369;28;20262;-30
2023/08/29 08:55:29;;;;;;;1.83;1.23;;;;;;;25.45;66.34;96662.72;4996751;28;20218;-27
2023/08/29 08:57:56;;;;;;;1.47;1.10;;;;;;;25.44;66.29;96659.31;4994023;28;20227;-30
2023/08/29 09:00:22;;;;;;;2.57;1.20;;;;;;;25.43;66.51;96660.13;4990981;28;20290;-34
2023/08/29 09:02:49;;;;;;;1.10;1.10;;;;;;;25.46;66.23;96667.03;4989497;28;20207;-29
2023/08/29 09:05:17;;;;;;;3.57;1.50;;;;;;;25.47;66.47;96661.00;4992144;28;20215;-27
2023/08/29 09:07:43;;;;;;;3.93;1.30;;;;;;;25.48;66.66;96665.28;4997517;28;20259;-30
2023/08/29 09:10:15;;;;;;;5.33;1.73;;;;;;;25.48;66.72;96665.28;4987585;28;20633;-33
2023/08/29 09:12:59;;;;;;;3.60;1.57;;;;;;;25.48;66.77;96671.31;4990769;28;20211;-27
2023/08/29 09:15:26;;;;;;;3.30;1.50;;;;;;;25.40;66.65;96656.72;4991872;28;20227;-27
2023/08/29 09:17:53;;;;;;;2.67;1.57;;;;;;;25.49;66.68;96674.75;4995667;28;20227;-27
2023/08/29 09:20:21;;;;;;;6.23;1.60;;;;;;;25.48;66.84;96673.00;4988039;28;20211;-27
2023/08/29 09:22:48;;;;;;;4.37;1.80;;;;;;;25.49;66.83;96678.16;4989946;28;20206;-27
2023/08/29 09:25:14;;;;;;;3.50;1.80;;;;;;;25.49;66.95;96674.75;4993684;28;20254;-28
2023/08/29 09:27:42;;;;;;;4.77;1.87;;;;;;;25.49;66.79;96675.56;4996561;28;20264;-27
2023/08/29 09:30:13;;;;;;;8.93;1.73;;;;;;;25.49;66.81;96687.59;4990054;28;20239;-27
2023/08/29 09:32:44;;;;;;;5.20;1.90;;;;;;;25.49;67.02;96682.47;5007240;28;20210;-27
2023/08/29 09:35:12;;;;;;;4.03;1.70;;;;;;;25.49;67.09;96680.72;4987452;28;20309;-28
2023/08/29 09:37:56;;;;;;;4.77;2.10;;;;;;;25.49;67.10;96680.72;4988181;28;20222;-30
2023/08/29 09:40:23;;;;;;;5.37;1.73;;;;;;;25.48;66.95;96686.75;4976183;28;20234;-27
2023/08/29 09:42:54;;;;;;;3.23;1.70;;;;;;;25.50;67.22;96684.16;4993185;28;20589;-30
2023/08/29 09:45:21;;;;;;;5.37;2.00;;;;;;;25.50;67.04;96691.88;4988752;28;20198;-27
2023/08/29 09:47:50;;;;;;;3.90;1.87;;;;;;;25.50;67.09;96695.31;4989053;28;20233;-27
2023/08/29 09:50:16;;;;;;;4.43;1.50;;;;;;;25.49;67.06;96687.59;4992165;28;20207;-27
2023/08/29 09:52:43;;;;;;;3.43;1.53;;;;;;;25.48;67.55;96694.47;4991348;28;20306;-27
2023/08/29 09:55:09;;;;;;;3.20;1.60;;;;;;;25.49;67.11;96695.31;4972801;28;20270;-27
2023/08/29 09:57:36;;;;;;;5.07;1.77;;;;;;;25.46;67.39;96691.00;4974514;28;20670;-28
2023/08/29 10:00:04;;;;;;;3.83;1.70;;;;;;;25.50;67.14;96699.59;4989308;28;20239;-27
2023/08/29 10:02:31;;;;;;;3.17;1.60;;;;;;;25.49;67.21;96695.31;4974699;28;20234;-27
2023/08/29 10:05:06;;;;;;;2.67;1.50;;;;;;;25.47;67.10;96690.19;4990053;28;20447;-37
2023/08/29 10:07:42;;;;;;;4.03;1.57;;;;;;;25.47;67.50;96694.44;4991975;28;20246;-27
2023/08/29 10:10:09;;;;;;;4.40;1.70;;;;;;;25.48;67.32;96701.31;4990412;28;20243;-27
2023/08/29 10:12:36;;;;;;;2.93;1.60;;;;;;;25.49;67.30;96706.44;4991198;28;20265;-27
2023/08/29 10:15:04;;;;;;;3.83;1.83;;;;;;;25.48;67.38;96709.03;4990875;28;20643;-27
2023/08/29 10:17:34;;;;;;;3.00;1.50;;;;;;;25.47;67.28;96710.75;4992185;28;20230;-29
2023/08/29 10:20:09;;;;;;;4.03;1.60;;;;;;;25.47;67.29;96704.75;4993006;28;20233;-27
2023/08/29 10:22:37;;;;;;;2.37;1.53;;;;;;;25.46;67.48;96706.44;4990811;28;20210;-27
2023/08/29 10:25:04;;;;;;;3.27;1.60;;;;;;;25.46;67.53;96701.31;4992999;28;20198;-27
2023/08/29 10:27:31;;;;;;;1.80;1.20;;;;;;;25.44;67.66;96704.75;4992303;28;20226;-27
2023/08/29 10:29:58;;;;;;;3.30;1.60;;;;;;;25.46;67.43;96703.03;4990005;28;20649;-27
2023/08/29 10:32:25;;;;;;;2.23;1.30;;;;;;;25.46;67.87;96706.44;4985304;28;20214;-27
2023/08/29 10:34:53;;;;;;;3.17;1.40;;;;;;;25.46;67.38;96708.19;4990651;28;20635;-30
2023/08/29 10:37:20;;;;;;;3.57;1.70;;;;;;;25.45;67.41;96707.31;4991529;28;20644;-27
2023/08/29 10:39:48;;;;;;;2.80;1.40;;;;;;;25.45;67.71;96707.31;4992108;28;20203;-27
2023/08/29 10:42:15;;;;;;;2.83;1.60;;;;;;;25.46;67.45;96711.59;4988674;28;20208;-27
2023/08/29 10:44:46;;;;;;;2.00;1.47;;;;;;;25.45;67.66;96709.88;4989610;28;20203;-27
2023/08/29 10:47:20;;;;;;;2.23;1.30;;;;;;;25.46;67.80;96710.75;4993482;28;20210;-27
2023/08/29 10:49:47;;;;;;;1.77;1.33;;;;;;;25.47;67.76;96715.03;4989891;28;20289;-31
2023/08/29 10:52:14;;;;;;;2.43;1.30;;;;;;;25.48;67.44;96716.75;4989056;28;20203;-27
2023/08/29 10:54:41;;;;;;;3.33;1.40;;;;;;;25.44;67.66;96710.75;4992406;28;20211;-27
2023/08/29 10:57:27;;;;;;;2.20;1.30;;;;;;;25.46;67.53;96711.59;4987090;28;20343;-27
2023/08/29 10:59:57;;;;;;;2.23;1.43;;;;;;;25.45;67.43;96709.03;4985065;28;20218;-30
2023/08/29 11:02:29;;;;;;;2.70;1.50;;;;;;;25.47;67.69;96715.03;4987784;28;20243;-27
2023/08/29 11:05:04;;;;;;;2.23;1.27;;;;;;;25.46;67.57;96713.34;4988698;28;20214;-27
2023/08/29 11:07:31;;;;;;;2.07;1.33;;;;;;;25.47;67.65;96713.34;4990787;28;20230;-27
2023/08/29 11:10:20;;;;;;;1.97;1.30;;;;;;;25.47;67.39;96705.63;4982073;28;20206;-27
2023/08/29 11:13:12;;;;;;;1.60;1.20;;;;;;;25.47;67.72;96710.75;4991784;28;20195;-27
2023/08/29 11:15:47;;;;;;;1.50;1.20;;;;;;;25.48;67.46;96712.47;4987687;28;20235;-29
2023/08/29 11:18:26;;;;;;;1.67;1.20;;;;;;;25.47;67.57;96705.63;4988743;28;20774;-27
2023/08/29 11:20:56;;;;;;;2.17;1.23;;;;;;;25.46;67.72;96703.03;4995147;28;20237;-30
2023/08/29 11:23:22;;;;;;;1.40;1.20;;;;;;;25.48;67.78;96693.59;4988679;28;20208;-29
2023/08/29 11:25:50;;;;;;;1.60;1.23;;;;;;;25.48;67.22;96698.72;4989226;28;20585;-29
2023/08/29 11:28:17;;;;;;;3.67;1.37;;;;;;;25.47;67.34;96697.03;4991146;28;20796;-27
2023/08/29 11:30:47;;;;;;;1.40;1.20;;;;;;;25.47;67.64;96697.91;4989784;28;20250;-28
2023/08/29 11:33:14;;;;;;;2.83;1.40;;;;;;;25.47;67.49;96697.91;4990466;28;20203;-28
2023/08/29 11:35:42;;;;;;;2.57;1.20;;;;;;;25.48;67.42;96698.72;4988514;28;20227;-27
2023/08/29 11:38:09;;;;;;;1.80;1.07;;;;;;;25.49;67.48;96700.47;4993933;28;20222;-27